Time;durP1;ratioP1;P1;durP2;ratioP2;P2;SDS_P1;SDS_P2;PMS_P1;PMS_P2;Temp;Humidity;BMP_temperature;BMP_pressure;BME280_temperature;BME280_humidity;BME280_pressure;Samples;Min_cycle;Max_cycle;Signal;HPM_P1;HPM_P2
2023/12/03 00:03:56;;;;;;;34.38;12.25;;;;;;;;;;10445255;22;20367;-92
2023/12/03 00:08:01;;;;;;;45.95;14.68;;;;;;;;;;10417644;22;20019;-92
2023/12/03 00:12:09;;;;;;;33.08;12.18;;;;;;;;;;10462020;22;20011;-93
2023/12/03 00:16:12;;;;;;;33.45;11.98;;;;;;;;;;10417704;22;20398;-94
2023/12/03 00:20:15;;;;;;;28.17;11.32;;;;;;;;;;10445612;22;20015;-92
2023/12/03 00:24:20;;;;;;;30.15;10.23;;;;;;;;;;10445875;22;20022;-92
2023/12/03 00:28:25;;;;;;;34.45;12.23;;;;;;;;;;10445711;22;20012;-92
2023/12/03 00:32:28;;;;;;;25.63;10.80;;;;;;;;;;10444550;22;20015;-92
2023/12/03 00:36:32;;;;;;;32.35;11.00;;;;;;;;;;10417106;22;20023;-93
2023/12/03 00:40:37;;;;;;;40.40;11.13;;;;;;;;;;10444568;22;20015;-92
2023/12/03 00:44:42;;;;;;;28.83;10.75;;;;;;;;;;10462161;22;20076;-92
2023/12/03 00:48:46;;;;;;;31.50;10.45;;;;;;;;;;10450625;22;20390;-92
2023/12/03 00:52:50;;;;;;;24.13;9.38;;;;;;;;;;10450588;22;20022;-93
2023/12/03 00:56:57;;;;;;;25.00;10.02;;;;;;;;;;10423042;22;20015;-93
2023/12/03 01:01:03;;;;;;;29.58;11.43;;;;;;;;;;10452122;22;20015;-93
2023/12/03 01:05:06;;;;;;;26.23;11.63;;;;;;;;;;10448604;22;20031;-93
2023/12/03 01:09:11;;;;;;;29.63;9.13;;;;;;;;;;10417991;22;20015;-93
2023/12/03 01:13:16;;;;;;;21.73;7.97;;;;;;;;;;10446618;22;20029;-93
2023/12/03 01:17:23;;;;;;;23.77;8.85;;;;;;;;;;10448178;22;20034;-93
2023/12/03 01:21:27;;;;;;;33.22;9.70;;;;;;;;;;10464928;22;20019;-92
2023/12/03 01:25:30;;;;;;;26.55;9.02;;;;;;;;;;10420996;22;20030;-93
2023/12/03 01:29:34;;;;;;;26.02;9.35;;;;;;;;;;10448497;22;20015;-93
2023/12/03 01:33:39;;;;;;;28.40;10.40;;;;;;;;;;10446377;22;20015;-92
2023/12/03 01:37:43;;;;;;;24.65;8.80;;;;;;;;;;10420905;22;20076;-93
2023/12/03 01:41:47;;;;;;;18.77;7.32;;;;;;;;;;10422099;22;20463;-93
2023/12/03 01:45:50;;;;;;;27.70;9.23;;;;;;;;;;10451322;22;20098;-94
2023/12/03 01:50:00;;;;;;;30.98;11.30;;;;;;;;;;10483583;22;20019;-93
2023/12/03 01:54:06;;;;;;;41.13;12.00;;;;;;;;;;10434149;22;20013;-94
2023/12/03 01:58:09;;;;;;;32.88;12.63;;;;;;;;;;10438282;22;20015;-93
2023/12/03 02:02:12;;;;;;;30.98;11.45;;;;;;;;;;10462509;22;20027;-94
2023/12/03 02:06:18;;;;;;;27.27;8.55;;;;;;;;;;10460751;22;20050;-92
2023/12/03 02:10:22;;;;;;;40.45;13.25;;;;;;;;;;10450324;22;20030;-93
2023/12/03 02:14:25;;;;;;;44.17;13.57;;;;;;;;;;10445459;22;20034;-92
2023/12/03 02:18:33;;;;;;;35.15;12.13;;;;;;;;;;10442396;22;20015;-93
2023/12/03 02:22:58;;;;;;;37.38;13.20;;;;;;;;;;10446528;22;20030;-92
2023/12/03 02:27:03;;;;;;;37.83;11.32;;;;;;;;;;10447289;22;20031;-93
2023/12/03 02:31:07;;;;;;;39.97;12.55;;;;;;;;;;10417499;22;20016;-93
2023/12/03 02:35:10;;;;;;;44.65;15.25;;;;;;;;;;10419690;22;20019;-93
2023/12/03 02:39:17;;;;;;;32.05;11.45;;;;;;;;;;10454206;22;20021;-93
2023/12/03 02:43:21;;;;;;;46.33;16.80;;;;;;;;;;10433973;22;20098;-92
2023/12/03 02:47:24;;;;;;;39.65;14.57;;;;;;;;;;10458238;22;20023;-92
2023/12/03 02:51:30;;;;;;;46.67;14.82;;;;;;;;;;10430530;22;20022;-93
2023/12/03 02:55:36;;;;;;;46.00;15.02;;;;;;;;;;10430318;22;20026;-92
2023/12/03 02:59:39;;;;;;;26.48;9.18;;;;;;;;;;10449070;22;20042;-91
2023/12/03 03:03:43;;;;;;;46.28;16.17;;;;;;;;;;10463398;22;20019;-92
2023/12/03 03:07:48;;;;;;;53.00;17.08;;;;;;;;;;10438712;22;20028;-92
2023/12/03 03:11:57;;;;;;;42.92;15.98;;;;;;;;;;10466863;22;20022;-92
2023/12/03 03:16:02;;;;;;;52.00;19.48;;;;;;;;;;10441492;22;20019;-92
2023/12/03 03:20:07;;;;;;;65.43;21.85;;;;;;;;;;10442108;22;20015;-91
2023/12/03 03:24:12;;;;;;;66.97;19.00;;;;;;;;;;10470827;22;20019;-92
2023/12/03 03:28:22;;;;;;;49.20;17.65;;;;;;;;;;10489975;22;20015;-92
2023/12/03 03:32:31;;;;;;;71.38;20.58;;;;;;;;;;10447140;22;20030;-91
2023/12/03 03:36:34;;;;;;;63.35;20.30;;;;;;;;;;10430137;22;20023;-92
2023/12/03 03:40:37;;;;;;;48.25;15.98;;;;;;;;;;10442185;22;20023;-92
2023/12/03 03:44:42;;;;;;;58.53;19.75;;;;;;;;;;10441764;22;20071;-91
2023/12/03 03:48:45;;;;;;;56.50;18.13;;;;;;;;;;10441893;22;20026;-92
2023/12/03 03:52:48;;;;;;;41.90;16.65;;;;;;;;;;10441971;22;20336;-92
2023/12/03 03:56:51;;;;;;;43.65;16.33;;;;;;;;;;10443497;22;20016;-91
2023/12/03 04:00:56;;;;;;;43.85;16.15;;;;;;;;;;10444367;22;20015;-92
2023/12/03 04:04:59;;;;;;;45.78;15.57;;;;;;;;;;10441980;22;20474;-91
2023/12/03 04:09:02;;;;;;;40.92;13.70;;;;;;;;;;10444072;22;20026;-91
2023/12/03 04:13:06;;;;;;;42.25;15.48;;;;;;;;;;10441974;22;20015;-91
2023/12/03 04:17:11;;;;;;;47.60;17.40;;;;;;;;;;10441432;22;20490;-93
2023/12/03 04:21:17;;;;;;;43.42;16.90;;;;;;;;;;10473022;22;20019;-92
2023/12/03 04:25:22;;;;;;;31.80;13.20;;;;;;;;;;10453854;22;20018;-91
2023/12/03 04:29:25;;;;;;;55.83;20.90;;;;;;;;;;10453120;22;20015;-92
2023/12/03 04:33:30;;;;;;;55.42;18.33;;;;;;;;;;10454575;22;20031;-92
2023/12/03 04:37:36;;;;;;;35.33;14.73;;;;;;;;;;10457156;22;20020;-92
2023/12/03 04:41:40;;;;;;;45.38;16.88;;;;;;;;;;10472731;22;20018;-92
2023/12/03 04:45:43;;;;;;;45.10;15.15;;;;;;;;;;10455563;22;20042;-92
2023/12/03 04:49:47;;;;;;;34.75;12.40;;;;;;;;;;10449471;22;20039;-92
2023/12/03 04:53:51;;;;;;;45.65;16.88;;;;;;;;;;10455491;22;20023;-92
2023/12/03 04:57:55;;;;;;;40.60;15.65;;;;;;;;;;10425278;22;20352;-92
2023/12/03 05:01:59;;;;;;;50.03;18.88;;;;;;;;;;10456391;22;20028;-94
2023/12/03 05:06:05;;;;;;;49.13;15.80;;;;;;;;;;10368483;22;20015;-93
2023/12/03 05:10:11;;;;;;;44.95;18.13;;;;;;;;;;10449117;22;20019;-93
2023/12/03 05:14:15;;;;;;;44.03;15.23;;;;;;;;;;10472919;22;20034;-93
2023/12/03 05:18:18;;;;;;;37.25;13.73;;;;;;;;;;10449062;22;20444;-93
2023/12/03 05:22:24;;;;;;;35.85;13.25;;;;;;;;;;10454857;22;20390;-93
2023/12/03 05:26:27;;;;;;;46.35;14.55;;;;;;;;;;10433323;22;20019;-93
2023/12/03 05:30:31;;;;;;;38.65;14.43;;;;;;;;;;10458468;22;20015;-94
2023/12/03 05:34:34;;;;;;;40.65;15.68;;;;;;;;;;10457236;22;20023;-94
2023/12/03 05:38:42;;;;;;;38.33;14.02;;;;;;;;;;10461764;22;20094;-94
2023/12/03 05:42:45;;;;;;;39.35;14.05;;;;;;;;;;10453044;22;20015;-92
2023/12/03 05:46:48;;;;;;;48.20;16.27;;;;;;;;;;10447891;22;20026;-93
2023/12/03 05:50:51;;;;;;;39.40;15.60;;;;;;;;;;10450687;22;20440;-93
2023/12/03 05:54:58;;;;;;;39.20;16.45;;;;;;;;;;10447644;22;20027;-93
2023/12/03 05:59:04;;;;;;;50.63;17.17;;;;;;;;;;10461603;22;20011;-93
2023/12/03 06:03:07;;;;;;;49.63;18.52;;;;;;;;;;10463581;22;20067;-92
2023/12/03 06:07:13;;;;;;;45.30;16.83;;;;;;;;;;10471002;22;20011;-92
2023/12/03 06:11:27;;;;;;;44.63;16.85;;;;;;;;;;10452110;22;20403;-92
2023/12/03 06:15:32;;;;;;;40.53;13.95;;;;;;;;;;10454138;22;20027;-92
2023/12/03 06:19:37;;;;;;;42.22;17.55;;;;;;;;;;10451708;22;20023;-92
2023/12/03 06:23:42;;;;;;;44.80;16.80;;;;;;;;;;10469267;22;20015;-92
2023/12/03 06:27:46;;;;;;;47.42;18.48;;;;;;;;;;10448421;22;20443;-92
2023/12/03 06:31:49;;;;;;;39.78;16.25;;;;;;;;;;10421567;22;20019;-92
2023/12/03 06:35:54;;;;;;;40.47;17.23;;;;;;;;;;10447656;22;20439;-93
2023/12/03 06:39:58;;;;;;;43.20;19.23;;;;;;;;;;10421379;22;20015;-92
2023/12/03 06:44:02;;;;;;;38.00;16.23;;;;;;;;;;10447077;22;20016;-92
2023/12/03 06:48:06;;;;;;;49.25;21.60;;;;;;;;;;10446084;22;20015;-92
2023/12/03 06:52:13;;;;;;;50.72;18.38;;;;;;;;;;10419925;22;20054;-92
2023/12/03 06:56:17;;;;;;;38.28;16.50;;;;;;;;;;10450040;22;20015;-92
2023/12/03 07:00:23;;;;;;;45.65;18.48;;;;;;;;;;10451132;22;20015;-92
2023/12/03 07:04:27;;;;;;;38.15;17.75;;;;;;;;;;10475942;22;20015;-92
2023/12/03 07:08:31;;;;;;;52.10;19.33;;;;;;;;;;10454252;22;20041;-91
2023/12/03 07:12:35;;;;;;;40.05;16.83;;;;;;;;;;10477411;22;20018;-93
2023/12/03 07:16:42;;;;;;;33.65;14.13;;;;;;;;;;10484948;22;20015;-93
2023/12/03 07:20:45;;;;;;;47.80;19.77;;;;;;;;;;10449857;22;20030;-93
2023/12/03 07:24:51;;;;;;;50.38;20.98;;;;;;;;;;10457470;22;20003;-92
2023/12/03 07:28:56;;;;;;;42.55;18.10;;;;;;;;;;10437027;22;20098;-94
2023/12/03 07:33:03;;;;;;;39.35;17.58;;;;;;;;;;10461909;22;20073;-94
2023/12/03 07:37:16;;;;;;;38.42;16.52;;;;;;;;;;10431003;22;20099;-93
2023/12/03 07:41:22;;;;;;;45.03;19.77;;;;;;;;;;10424863;22;20046;-95
2023/12/03 07:45:28;;;;;;;34.03;14.68;;;;;;;;;;10452036;22;20019;-93
2023/12/03 07:49:34;;;;;;;44.58;16.88;;;;;;;;;;10467832;22;20019;-92
2023/12/03 07:53:38;;;;;;;32.60;13.98;;;;;;;;;;10463481;22;20022;-93
2023/12/03 07:57:41;;;;;;;49.28;18.67;;;;;;;;;;10415982;22;20026;-92
2023/12/03 08:01:45;;;;;;;42.58;18.77;;;;;;;;;;10444436;22;20094;-93
2023/12/03 08:05:50;;;;;;;40.75;16.48;;;;;;;;;;10444107;22;20502;-92
2023/12/03 08:09:54;;;;;;;41.78;15.73;;;;;;;;;;10420543;22;20022;-93
2023/12/03 08:13:58;;;;;;;33.67;15.32;;;;;;;;;;10455974;22;20015;-93
2023/12/03 08:18:01;;;;;;;36.72;14.95;;;;;;;;;;10455921;22;20462;-93
2023/12/03 08:22:07;;;;;;;31.63;14.55;;;;;;;;;;10447912;22;20130;-92
2023/12/03 08:26:10;;;;;;;35.08;13.63;;;;;;;;;;10468121;22;20015;-91
2023/12/03 08:30:20;;;;;;;34.90;14.50;;;;;;;;;;10425429;22;20021;-92
2023/12/03 08:34:30;;;;;;;41.15;16.23;;;;;;;;;;10452622;22;20060;-93
2023/12/03 08:38:35;;;;;;;42.38;18.00;;;;;;;;;;10420805;22;20019;-92
2023/12/03 08:42:39;;;;;;;33.85;15.05;;;;;;;;;;10419645;22;20019;-93
2023/12/03 08:46:47;;;;;;;32.08;14.93;;;;;;;;;;10447052;22;20019;-93
2023/12/03 08:50:51;;;;;;;41.92;18.10;;;;;;;;;;10445949;22;20019;-92
2023/12/03 08:54:57;;;;;;;39.25;16.27;;;;;;;;;;10446076;22;20027;-92
2023/12/03 08:59:10;;;;;;;30.25;13.38;;;;;;;;;;10467078;22;20019;-95
2023/12/03 09:03:13;;;;;;;31.38;14.52;;;;;;;;;;10466919;22;20094;-94
2023/12/03 09:07:19;;;;;;;42.67;18.23;;;;;;;;;;10414919;22;20019;-93
2023/12/03 09:11:24;;;;;;;54.53;24.95;;;;;;;;;;10442502;22;20019;-92
2023/12/03 09:15:28;;;;;;;38.03;15.48;;;;;;;;;;10415845;22;20026;-93
2023/12/03 09:19:31;;;;;;;41.22;18.88;;;;;;;;;;10443681;22;20034;-92
2023/12/03 09:23:35;;;;;;;39.75;19.10;;;;;;;;;;10443968;22;20023;-91
2023/12/03 09:27:39;;;;;;;32.20;16.48;;;;;;;;;;10442757;22;20038;-93
2023/12/03 09:31:43;;;;;;;44.03;19.27;;;;;;;;;;10414285;22;20069;-93
2023/12/03 09:35:52;;;;;;;32.65;15.73;;;;;;;;;;10416184;22;20015;-92
2023/12/03 09:40:04;;;;;;;35.13;17.35;;;;;;;;;;10460165;22;20019;-93
2023/12/03 09:44:22;;;;;;;32.60;13.68;;;;;;;;;;10459854;22;20073;-96
2023/12/03 09:48:30;;;;;;;35.30;16.15;;;;;;;;;;10416405;22;20463;-92
2023/12/03 09:52:36;;;;;;;33.50;15.20;;;;;;;;;;10460055;22;20015;-92
2023/12/03 09:56:43;;;;;;;36.75;16.42;;;;;;;;;;10460326;22;20030;-93
2023/12/03 10:00:51;;;;;;;30.77;14.13;;;;;;;;;;10415813;22;20019;-93
2023/12/03 10:04:57;;;;;;;37.30;14.30;;;;;;;;;;10460018;22;20440;-90
2023/12/03 10:09:02;;;;;;;40.17;16.08;;;;;;;;;;10442566;22;20049;-92
2023/12/03 10:13:09;;;;;;;34.22;16.02;;;;;;;;;;10459132;22;20015;-93
2023/12/03 10:17:19;;;;;;;35.25;17.02;;;;;;;;;;10442169;22;20019;-92
2023/12/03 10:21:24;;;;;;;37.80;17.08;;;;;;;;;;10443534;22;20614;-92
2023/12/03 10:25:30;;;;;;;28.70;12.82;;;;;;;;;;10443421;22;20094;-92
2023/12/03 10:29:34;;;;;;;35.92;15.95;;;;;;;;;;10415487;22;20348;-93
2023/12/03 10:33:39;;;;;;;40.88;18.10;;;;;;;;;;10443137;22;20046;-91
2023/12/03 10:37:43;;;;;;;34.50;15.02;;;;;;;;;;10459040;22;20023;-91
2023/12/03 10:41:47;;;;;;;37.08;16.08;;;;;;;;;;10442693;22;20068;-91
2023/12/03 10:45:54;;;;;;;36.90;16.08;;;;;;;;;;10442951;22;20019;-92
2023/12/03 10:50:00;;;;;;;29.50;14.43;;;;;;;;;;10443033;22;20023;-93
2023/12/03 10:54:05;;;;;;;33.92;15.25;;;;;;;;;;10445204;22;20019;-92
2023/12/03 10:58:09;;;;;;;36.35;16.70;;;;;;;;;;10441422;22;20022;-89
2023/12/03 11:02:14;;;;;;;27.08;10.75;;;;;;;;;;10440325;22;20440;-90
2023/12/03 11:06:26;;;;;;;34.25;16.75;;;;;;;;;;10470736;22;20019;-93
2023/12/03 11:10:32;;;;;;;35.72;14.65;;;;;;;;;;10434606;22;20022;-93
2023/12/03 11:14:37;;;;;;;32.35;15.43;;;;;;;;;;10469621;22;20011;-94
2023/12/03 11:18:45;;;;;;;37.53;15.63;;;;;;;;;;10420713;22;20031;-93
2023/12/03 11:23:09;;;;;;;37.50;16.70;;;;;;;;;;10413479;22;20030;-92
2023/12/03 11:27:15;;;;;;;35.20;16.23;;;;;;;;;;10463563;22;20022;-92
2023/12/03 11:31:25;;;;;;;32.88;14.75;;;;;;;;;;10456940;22;20098;-93
2023/12/03 11:35:30;;;;;;;40.25;17.48;;;;;;;;;;10359289;23;20020;-93
2023/12/03 11:39:38;;;;;;;34.78;17.20;;;;;;;;;;10341135;23;20027;-93
2023/12/03 11:43:41;;;;;;;31.33;14.20;;;;;;;;;;10340902;22;20024;-94
2023/12/03 11:47:46;;;;;;;34.00;15.90;;;;;;;;;;10338994;22;20402;-94
2023/12/03 11:51:50;;;;;;;33.10;14.73;;;;;;;;;;10362527;22;20066;-91
2023/12/03 11:55:59;;;;;;;25.23;13.30;;;;;;;;;;10339532;22;20479;-93
2023/12/03 12:00:06;;;;;;;33.50;15.60;;;;;;;;;;10362679;22;20024;-95
2023/12/03 12:04:22;;;;;;;33.00;16.10;;;;;;;;;;10349212;23;20019;-92
2023/12/03 12:08:25;;;;;;;34.30;15.73;;;;;;;;;;10338185;22;20024;-90
2023/12/03 12:12:31;;;;;;;34.00;15.55;;;;;;;;;;10338309;22;20027;-92
2023/12/03 12:16:37;;;;;;;29.58;14.88;;;;;;;;;;10339282;23;20028;-92
2023/12/03 12:20:42;;;;;;;30.00;14.10;;;;;;;;;;10338385;23;20030;-92
2023/12/03 12:24:46;;;;;;;31.20;14.32;;;;;;;;;;10336332;23;20052;-91
2023/12/03 12:28:52;;;;;;;29.67;16.10;;;;;;;;;;10336521;23;20071;-92
2023/12/03 12:32:57;;;;;;;29.23;14.07;;;;;;;;;;10389056;22;20543;-91
2023/12/03 12:37:08;;;;;;;31.38;14.70;;;;;;;;;;10445289;22;20027;-93
2023/12/03 12:41:14;;;;;;;32.95;14.65;;;;;;;;;;10443875;22;20101;-93
2023/12/03 12:45:33;;;;;;;30.45;15.90;;;;;;;;;;10459907;22;20045;-85
2023/12/03 12:49:52;;;;;;;33.00;17.08;;;;;;;;;;10448691;22;20028;-91
2023/12/03 12:53:56;;;;;;;33.97;16.25;;;;;;;;;;10470600;22;20023;-87
2023/12/03 12:58:00;;;;;;;25.70;13.73;;;;;;;;;;10442761;22;20043;-90
2023/12/03 13:02:10;;;;;;;33.33;15.73;;;;;;;;;;10440950;22;20453;-88
2023/12/03 13:06:16;;;;;;;33.55;15.70;;;;;;;;;;10441597;22;20011;-89
2023/12/03 13:10:22;;;;;;;30.20;14.60;;;;;;;;;;10458797;22;20086;-89
2023/12/03 13:14:29;;;;;;;36.90;17.40;;;;;;;;;;10458933;22;20053;-89
2023/12/03 13:18:37;;;;;;;34.70;15.27;;;;;;;;;;10458983;22;20039;-88
2023/12/03 13:22:41;;;;;;;32.65;15.18;;;;;;;;;;10458594;22;20063;-88
2023/12/03 13:26:46;;;;;;;25.77;11.02;;;;;;;;;;10441227;22;20023;-88
2023/12/03 13:30:50;;;;;;;26.02;13.15;;;;;;;;;;10441171;22;20023;-87
2023/12/03 13:34:56;;;;;;;23.58;12.07;;;;;;;;;;10440865;22;20351;-90
2023/12/03 13:38:59;;;;;;;26.30;13.05;;;;;;;;;;10458447;22;20351;-90
2023/12/03 13:43:03;;;;;;;25.98;13.73;;;;;;;;;;10441338;22;20312;-90
2023/12/03 13:47:07;;;;;;;27.58;14.68;;;;;;;;;;10441516;22;20019;-90
2023/12/03 13:51:12;;;;;;;31.05;13.93;;;;;;;;;;10440870;22;20050;-90
2023/12/03 13:55:16;;;;;;;33.08;14.52;;;;;;;;;;10457739;22;20029;-90
2023/12/03 13:59:19;;;;;;;25.05;12.65;;;;;;;;;;10440582;22;20347;-90
2023/12/03 14:03:22;;;;;;;27.05;13.27;;;;;;;;;;10440416;22;20023;-90
2023/12/03 14:07:26;;;;;;;29.73;14.35;;;;;;;;;;10442098;22;20462;-89
2023/12/03 14:11:30;;;;;;;31.40;14.23;;;;;;;;;;10440913;22;20019;-90
2023/12/03 14:15:33;;;;;;;37.13;15.65;;;;;;;;;;10440859;22;20343;-90
2023/12/03 14:19:38;;;;;;;31.00;14.00;;;;;;;;;;10414184;22;20435;-90
2023/12/03 14:23:43;;;;;;;16.80;7.20;;;;;;;;;;10441814;22;20334;-89
2023/12/03 14:27:46;;;;;;;31.15;15.13;;;;;;;;;;10440143;22;20022;-90
2023/12/03 14:31:49;;;;;;;29.60;13.75;;;;;;;;;;10412524;22;20203;-91
2023/12/03 14:35:52;;;;;;;18.80;9.10;;;;;;;;;;10457124;22;20015;-89
2023/12/03 14:39:57;;;;;;;37.50;14.63;;;;;;;;;;10439894;22;20097;-90
2023/12/03 14:44:00;;;;;;;23.10;11.95;;;;;;;;;;10439633;22;20023;-89
2023/12/03 14:48:04;;;;;;;21.55;10.38;;;;;;;;;;10413035;22;20384;-90
2023/12/03 14:52:07;;;;;;;27.83;14.63;;;;;;;;;;10439827;22;20019;-90
2023/12/03 14:56:20;;;;;;;25.70;12.82;;;;;;;;;;10445542;22;20023;-90
2023/12/03 15:00:23;;;;;;;17.52;8.82;;;;;;;;;;10456827;22;20019;-90
2023/12/03 15:04:28;;;;;;;36.05;15.77;;;;;;;;;;10439897;22;20568;-90
2023/12/03 15:08:31;;;;;;;20.73;10.10;;;;;;;;;;10440062;22;20633;-90
2023/12/03 15:12:37;;;;;;;39.80;16.13;;;;;;;;;;10439585;22;20015;-90
2023/12/03 15:16:40;;;;;;;40.83;17.67;;;;;;;;;;10442715;22;20026;-90
2023/12/03 15:20:44;;;;;;;29.42;14.95;;;;;;;;;;10411836;22;20022;-91
2023/12/03 15:24:47;;;;;;;36.55;16.30;;;;;;;;;;10439474;22;20029;-90
2023/12/03 15:28:53;;;;;;;32.55;14.20;;;;;;;;;;10439097;22;20043;-90
2023/12/03 15:33:03;;;;;;;30.48;13.95;;;;;;;;;;10409078;22;20076;-89
2023/12/03 15:37:06;;;;;;;41.30;18.40;;;;;;;;;;10439223;22;20394;-90
2023/12/03 15:41:11;;;;;;;32.35;14.52;;;;;;;;;;10439529;22;20023;-90
2023/12/03 15:45:24;;;;;;;32.38;13.05;;;;;;;;;;10438824;22;20015;-89
2023/12/03 15:49:44;;;;;;;27.50;11.80;;;;;;;;;;10456269;22;20447;-90
2023/12/03 15:53:58;;;;;;;27.13;12.10;;;;;;;;;;10455956;22;20479;-90
2023/12/03 15:58:07;;;;;;;24.90;11.68;;;;;;;;;;10438804;22;20022;-90
2023/12/03 16:02:11;;;;;;;22.45;10.25;;;;;;;;;;10439729;22;20034;-89
2023/12/03 16:06:16;;;;;;;22.48;10.63;;;;;;;;;;10439886;22;20018;-91
2023/12/03 16:10:20;;;;;;;19.88;8.52;;;;;;;;;;10439809;22;20027;-90
2023/12/03 16:14:23;;;;;;;29.42;12.63;;;;;;;;;;10439322;22;20506;-90
2023/12/03 16:18:28;;;;;;;22.65;11.15;;;;;;;;;;10441783;22;20015;-91
2023/12/03 16:22:35;;;;;;;21.15;10.93;;;;;;;;;;10459707;22;20511;-90
2023/12/03 16:26:38;;;;;;;24.00;11.27;;;;;;;;;;10442045;22;20015;-87
2023/12/03 16:30:42;;;;;;;29.15;11.52;;;;;;;;;;10445614;22;20035;-87
2023/12/03 16:34:48;;;;;;;18.45;9.70;;;;;;;;;;10442496;22;20019;-89
2023/12/03 16:38:50;;;;;;;27.27;12.55;;;;;;;;;;10459960;22;20023;-89
2023/12/03 16:42:53;;;;;;;31.35;12.63;;;;;;;;;;10442600;22;20015;-89
2023/12/03 16:46:56;;;;;;;24.98;10.60;;;;;;;;;;10417026;22;20081;-91
2023/12/03 16:51:02;;;;;;;26.92;11.13;;;;;;;;;;10441958;22;20019;-90
2023/12/03 16:55:10;;;;;;;30.45;12.48;;;;;;;;;;10460831;22;20099;-90
2023/12/03 16:59:18;;;;;;;23.73;9.85;;;;;;;;;;10460632;22;20762;-90
2023/12/03 17:03:22;;;;;;;24.67;11.38;;;;;;;;;;10443402;22;20011;-93
2023/12/03 17:07:27;;;;;;;20.23;9.88;;;;;;;;;;10441833;22;20477;-91
2023/12/03 17:11:30;;;;;;;17.33;8.90;;;;;;;;;;10414548;22;20034;-90
2023/12/03 17:15:33;;;;;;;23.08;8.88;;;;;;;;;;10441059;22;20450;-88
2023/12/03 17:19:37;;;;;;;15.30;6.78;;;;;;;;;;10441395;22;20027;-90
2023/12/03 17:23:43;;;;;;;17.33;7.72;;;;;;;;;;10442021;22;20019;-93
2023/12/03 17:27:48;;;;;;;20.92;9.38;;;;;;;;;;10458368;22;20451;-89
2023/12/03 17:31:53;;;;;;;16.70;8.40;;;;;;;;;;10440632;22;20460;-86
2023/12/03 17:35:59;;;;;;;16.58;7.05;;;;;;;;;;10455084;22;20019;-88
2023/12/03 17:40:10;;;;;;;17.65;6.70;;;;;;;;;;10413048;22;20062;-91
2023/12/03 17:44:15;;;;;;;;;;;;;;;;;;10458196;22;20015;-89
2023/12/03 17:48:20;;;;;;;13.20;6.65;;;;;;;;;;10440618;22;20328;-90
2023/12/03 17:52:24;;;;;;;18.35;7.30;;;;;;;;;;10440089;22;20065;-89
2023/12/03 17:56:33;;;;;;;16.02;5.95;;;;;;;;;;10440403;22;20018;-90
2023/12/03 18:00:43;;;;;;;21.95;8.07;;;;;;;;;;10457784;22;20064;-90
2023/12/03 18:04:48;;;;;;;21.20;8.32;;;;;;;;;;10460823;22;20015;-90
2023/12/03 18:08:53;;;;;;;26.52;10.40;;;;;;;;;;10441017;22;20015;-90
2023/12/03 18:13:01;;;;;;;22.58;8.95;;;;;;;;;;10440442;22;20015;-88
2023/12/03 18:17:07;;;;;;;16.60;7.65;;;;;;;;;;10440584;22;20098;-91
2023/12/03 18:21:12;;;;;;;20.83;10.15;;;;;;;;;;10410094;22;20065;-91
2023/12/03 18:25:18;;;;;;;21.75;9.25;;;;;;;;;;10454724;22;20023;-91
2023/12/03 18:29:30;;;;;;;27.23;11.35;;;;;;;;;;10454021;22;20064;-90
2023/12/03 18:33:36;;;;;;;27.67;13.50;;;;;;;;;;10411675;22;20023;-91
2023/12/03 18:37:43;;;;;;;16.00;8.90;;;;;;;;;;10443989;22;20023;-91
2023/12/03 18:41:53;;;;;;;23.35;10.45;;;;;;;;;;10458060;22;20498;-91
2023/12/03 18:46:08;;;;;;;22.67;10.77;;;;;;;;;;10456870;22;20030;-91
2023/12/03 18:50:18;;;;;;;25.10;10.80;;;;;;;;;;10412754;22;20029;-90
2023/12/03 18:54:28;;;;;;;21.55;11.43;;;;;;;;;;10412804;22;20060;-89
2023/12/03 18:58:34;;;;;;;24.98;10.38;;;;;;;;;;10457299;22;20016;-90
2023/12/03 19:02:48;;;;;;;28.33;11.68;;;;;;;;;;10457047;22;20462;-91
2023/12/03 19:07:12;;;;;;;32.90;10.27;;;;;;;;;;10440474;22;20019;-92
2023/12/03 19:11:36;;;;;;;;;;;;;;;;;;10440572;22;20100;-90
2023/12/03 19:15:45;;;;;;;29.58;10.38;;;;;;;;;;10439618;22;20241;-90
2023/12/03 19:20:06;;;;;;;20.75;10.13;;;;;;;;;;10457110;22;20019;-90
2023/12/03 19:24:24;;;;;;;20.25;9.80;;;;;;;;;;10440542;22;20019;-90
2023/12/03 19:28:30;;;;;;;16.30;7.10;;;;;;;;;;10439669;22;20061;-91
2023/12/03 19:32:38;;;;;;;19.88;10.25;;;;;;;;;;10439848;22;20351;-90
2023/12/03 19:37:03;;;;;;;19.75;8.82;;;;;;;;;;10439395;22;20713;-90
2023/12/03 19:41:12;;;;;;;18.08;8.80;;;;;;;;;;10456679;22;20015;-92
2023/12/03 19:45:44;;;;;;;18.85;8.75;;;;;;;;;;10432543;22;20321;-91
2023/12/03 19:54:17;;;;;;;19.05;8.60;;;;;;;;;;10442285;22;20015;-91
2023/12/03 19:58:25;;;;;;;23.20;8.07;;;;;;;;;;10460093;22;20354;-92
2023/12/03 20:02:30;;;;;;;28.42;10.75;;;;;;;;;;10462468;22;20022;-91
2023/12/03 20:06:49;;;;;;;21.92;10.25;;;;;;;;;;10444508;22;20015;-91
2023/12/03 20:10:57;;;;;;;31.63;10.85;;;;;;;;;;10415563;22;20035;-91
2023/12/03 20:15:08;;;;;;;34.63;11.85;;;;;;;;;;10443190;22;20023;-91
2023/12/03 20:19:14;;;;;;;21.85;8.10;;;;;;;;;;10459584;22;20076;-90
2023/12/03 20:23:19;;;;;;;20.08;9.27;;;;;;;;;;10442190;22;20021;-90
2023/12/03 20:27:26;;;;;;;19.00;9.25;;;;;;;;;;10442113;22;20019;-92
2023/12/03 20:31:32;;;;;;;21.45;9.20;;;;;;;;;;10459304;22;20068;-88
2023/12/03 20:35:38;;;;;;;19.00;8.20;;;;;;;;;;10461259;22;20451;-91
2023/12/03 20:39:42;;;;;;;16.50;8.45;;;;;;;;;;10442148;22;20039;-90
2023/12/03 20:44:03;;;;;;;21.23;9.40;;;;;;;;;;10441476;22;20019;-91
2023/12/03 20:48:08;;;;;;;24.38;10.73;;;;;;;;;;10442024;22;20482;-90
2023/12/03 20:52:22;;;;;;;21.25;10.10;;;;;;;;;;10442298;22;20020;-90
2023/12/03 20:56:33;;;;;;;20.10;8.75;;;;;;;;;;10458960;22;20030;-89
2023/12/03 21:00:37;;;;;;;24.97;10.27;;;;;;;;;;10459543;22;20042;-91
2023/12/03 21:09:01;;;;;;;25.05;10.48;;;;;;;;;;10258372;23;20074;-90
2023/12/03 21:13:04;;;;;;;21.52;9.10;;;;;;;;;;10401469;22;20431;-91
2023/12/03 21:17:09;;;;;;;26.45;9.80;;;;;;;;;;10441850;22;20016;-91
2023/12/03 21:21:12;;;;;;;25.95;10.20;;;;;;;;;;10441527;22;20051;-91
2023/12/03 21:25:17;;;;;;;22.85;10.35;;;;;;;;;;10441598;22;20091;-89
2023/12/03 21:29:23;;;;;;;16.60;7.32;;;;;;;;;;10440953;22;20023;-89
2023/12/03 21:33:28;;;;;;;23.02;11.18;;;;;;;;;;10457902;22;20019;-90
2023/12/03 21:37:31;;;;;;;25.23;10.73;;;;;;;;;;10441381;22;20019;-91
2023/12/03 21:41:34;;;;;;;27.45;11.88;;;;;;;;;;10441349;22;20055;-91
2023/12/03 21:45:37;;;;;;;24.42;10.80;;;;;;;;;;10441598;22;20467;-90
2023/12/03 21:49:41;;;;;;;29.23;10.43;;;;;;;;;;10441168;22;20023;-90
2023/12/03 21:53:45;;;;;;;23.05;9.55;;;;;;;;;;10441156;22;20050;-90
2023/12/03 21:57:48;;;;;;;27.38;11.18;;;;;;;;;;10441067;22;20019;-90
2023/12/03 22:01:51;;;;;;;25.50;10.23;;;;;;;;;;10440807;22;20023;-90
2023/12/03 22:05:55;;;;;;;25.15;10.68;;;;;;;;;;10413574;22;20015;-91
2023/12/03 22:09:58;;;;;;;24.13;10.60;;;;;;;;;;10413039;22;20048;-90
2023/12/03 22:14:00;;;;;;;31.48;12.35;;;;;;;;;;10440339;22;20068;-90
2023/12/03 22:18:04;;;;;;;23.23;12.23;;;;;;;;;;10439862;22;20151;-90
2023/12/03 22:22:09;;;;;;;25.98;11.68;;;;;;;;;;10440381;22;20404;-90
2023/12/03 22:26:27;;;;;;;32.97;10.75;;;;;;;;;;10439950;22;20060;-90
2023/12/03 22:30:30;;;;;;;28.42;12.32;;;;;;;;;;10440898;22;20047;-91
2023/12/03 22:34:42;;;;;;;23.58;10.50;;;;;;;;;;10412746;22;20467;-91
2023/12/03 22:38:57;;;;;;;;;;;;;;;;;;;;;
2023/12/03 22:43:09;;;;;;;20.63;10.77;;;;;;;;;;10457788;22;20447;-91
2023/12/03 22:47:12;;;;;;;21.95;10.35;;;;;;;;;;10440674;22;20414;-91
2023/12/03 22:51:16;;;;;;;26.70;11.75;;;;;;;;;;10440422;22;20019;-91
2023/12/03 22:55:20;;;;;;;24.10;12.48;;;;;;;;;;10440026;22;20015;-91
2023/12/03 22:59:23;;;;;;;25.80;11.85;;;;;;;;;;10439441;22;20015;-90
2023/12/03 23:03:26;;;;;;;14.95;8.82;;;;;;;;;;10439145;22;20023;-90
2023/12/03 23:07:29;;;;;;;29.52;11.85;;;;;;;;;;10439186;22;20022;-90
2023/12/03 23:11:33;;;;;;;29.88;12.23;;;;;;;;;;10411740;22;20022;-90
2023/12/03 23:15:36;;;;;;;22.48;10.80;;;;;;;;;;10439178;22;20015;-90
2023/12/03 23:19:39;;;;;;;26.67;11.65;;;;;;;;;;10439644;22;20149;-91
2023/12/03 23:23:42;;;;;;;20.50;8.90;;;;;;;;;;10439647;22;20137;-91
2023/12/03 23:27:47;;;;;;;29.30;11.43;;;;;;;;;;10412128;22;20019;-89
2023/12/03 23:31:49;;;;;;;25.08;11.18;;;;;;;;;;10439122;22;20460;-91
2023/12/03 23:36:08;;;;;;;25.33;10.35;;;;;;;;;;10433196;22;20023;-90
2023/12/03 23:40:11;;;;;;;26.98;11.43;;;;;;;;;;10439098;22;20066;-91
2023/12/03 23:44:16;;;;;;;28.85;10.82;;;;;;;;;;10439800;22;20094;-91
2023/12/03 23:48:19;;;;;;;24.58;11.52;;;;;;;;;;10439487;22;20019;-91